Pemberville, OH

2:19 PM EDT on August 29, 2014 (GMT -0400)
Findlay | Change Station
CLOSE
Current Station
Airport
Location: Findlay,
Elevation: 810 ft
Nearby Weather Stations

Elev 810 ft 41.01 °N, 83.67 °W | Updated 26 minutes ago

Clear
Clear
79 °F
Feels Like 79 °F
N
12
Wind Variable Wind from South

Today
High -- | Low -- °F
--% Chance of Precip.
Yesterday
High -- | Low -- °F
Precip. -- in
6:57 AM 8:11 PM
Waxing Crescent, 15% visible
Pressure 30.06 in
Visibility 10.0 miles
Clouds Clear
Dew Point 61 °F
Humidity 54%
Rainfall 0.00 in
Snow Depth Not available.
UV 9 out of 12
Pollen 8.90 out of 12
Air Quality Not available.
Flu Activity Not available.
METAR KFDY 291753Z AUTO 18010KT 10SM CLR 26/16 A3009 RMK AO2 SLP180 T02610161 10267 20156 58010

More Conditions Fewer Conditions

Pressure 30.06 in
Visibility 10.0 miles
Clouds Clear
Dew Point 61 °F
Humidity 54%
Rainfall 0.00 in
Snow Depth Not available.
UV 9 out of 12
Pollen 8.90 out of 12
Air Quality Not available.
Flu Activity Not available.
METAR KFDY 291753Z AUTO 18010KT 10SM CLR 26/16 A3009 RMK AO2 SLP180 T02610161 10267 20156 58010

More Conditions Fewer Conditions

10-Day Weather Forecast

Almanac

Astronomy

Aug. 29, 2014 Rise Set
Actual Time 6:57 AM EDT 8:11 PM EDT
Civil Twilight 6:28 AM EDT 8:40 PM EDT
Nautical Twilight 5:54 AM EDT 9:14 PM EDT
Astronomical Twilight 5:18 AM EDT 9:50 PM EDT
Moon 10:48 AM EDT 10:05 PM EDT
Length of Visible Light 14h 11m
Length of Day
13h 14m
Tomorrow will be 2m 38s shorter.
Waxing Crescent, 15% of the Moon is Illuminated
Today
Waxing Crescent
Sep 2
First Quarter
Sep 8
Full
Sep 15
Last Quarter
Sep 24
New

Today's Extremes

State Highs State Lows

Community

WunderPhotos

Upload Photos

1,748,309 photos uploaded!

Nearby

Snow Depth

Station Depth Elevation
No new snow has been reported.

Earthquake Activity

City Distance Mag. Time & Date
No recent earthquake activity has been reported nearby.
Minimum magnitude displayed is 2.5.

Coastal Water Temperatures

Place Temperature
Marblehead, OH 73.9 °F

Nearby Weather Stations